sensor_id;sensor_type;location;lat;lon;timestamp;pressure;altitude;pressure_sealevel;temperature;humidity
62926;BME280;55732;52.248;-0.844;2022-07-23T00:01:30;101048.38;;;17.81;65.17
62926;BME280;55732;52.248;-0.844;2022-07-23T00:03:56;101045.06;;;17.79;65.21
62926;BME280;55732;52.248;-0.844;2022-07-23T00:06:22;101041.21;;;17.75;65.25
62926;BME280;55732;52.248;-0.844;2022-07-23T00:08:48;101042.31;;;17.74;65.40
62926;BME280;55732;52.248;-0.844;2022-07-23T00:11:14;101043.77;;;17.72;65.44
62926;BME280;55732;52.248;-0.844;2022-07-23T00:13:40;101035.33;;;17.67;65.55
62926;BME280;55732;52.248;-0.844;2022-07-23T00:16:06;101040.26;;;17.70;65.68
62926;BME280;55732;52.248;-0.844;2022-07-23T00:18:31;101037.75;;;17.71;65.77
62926;BME280;55732;52.248;-0.844;2022-07-23T00:20:56;101038.99;;;17.71;65.86
62926;BME280;55732;52.248;-0.844;2022-07-23T00:23:22;101037.02;;;17.72;65.65
62926;BME280;55732;52.248;-0.844;2022-07-23T00:25:50;101037.89;;;17.72;65.71
62926;BME280;55732;52.248;-0.844;2022-07-23T00:28:15;101041.46;;;17.72;65.84
62926;BME280;55732;52.248;-0.844;2022-07-23T00:30:41;101042.05;;;17.70;65.78
62926;BME280;55732;52.248;-0.844;2022-07-23T00:33:07;101040.96;;;17.70;65.91
62926;BME280;55732;52.248;-0.844;2022-07-23T00:35:35;101042.39;;;17.71;65.82
62926;BME280;55732;52.248;-0.844;2022-07-23T00:38:02;101039.64;;;17.66;65.96
62926;BME280;55732;52.248;-0.844;2022-07-23T00:40:28;101032.04;;;17.63;65.97
62926;BME280;55732;52.248;-0.844;2022-07-23T00:42:54;101020.07;;;17.57;66.19
62926;BME280;55732;52.248;-0.844;2022-07-23T00:45:20;101029.21;;;17.61;66.16
62926;BME280;55732;52.248;-0.844;2022-07-23T00:47:45;101032.60;;;17.61;66.30
62926;BME280;55732;52.248;-0.844;2022-07-23T00:50:12;101030.44;;;17.62;66.49
62926;BME280;55732;52.248;-0.844;2022-07-23T00:52:38;101033.83;;;17.63;66.44
62926;BME280;55732;52.248;-0.844;2022-07-23T00:55:05;101029.73;;;17.64;66.53
62926;BME280;55732;52.248;-0.844;2022-07-23T00:57:32;101030.41;;;17.65;66.60
62926;BME280;55732;52.248;-0.844;2022-07-23T00:59:57;101026.83;;;17.66;66.60
62926;BME280;55732;52.248;-0.844;2022-07-23T01:02:26;101023.63;;;17.65;66.64
62926;BME280;55732;52.248;-0.844;2022-07-23T01:04:52;101025.96;;;17.65;66.81
62926;BME280;55732;52.248;-0.844;2022-07-23T01:07:18;101019.42;;;17.61;66.83
62926;BME280;55732;52.248;-0.844;2022-07-23T01:09:45;101020.21;;;17.58;66.84
62926;BME280;55732;52.248;-0.844;2022-07-23T01:12:11;101011.75;;;17.55;66.87
62926;BME280;55732;52.248;-0.844;2022-07-23T01:14:37;101007.40;;;17.50;67.08
62926;BME280;55732;52.248;-0.844;2022-07-23T01:17:03;101004.61;;;17.47;67.25
62926;BME280;55732;52.248;-0.844;2022-07-23T01:19:29;101002.19;;;17.45;67.49
62926;BME280;55732;52.248;-0.844;2022-07-23T01:21:56;101000.63;;;17.43;67.56
62926;BME280;55732;52.248;-0.844;2022-07-23T01:24:22;100998.14;;;17.43;67.65
62926;BME280;55732;52.248;-0.844;2022-07-23T01:26:48;100996.19;;;17.42;67.75
62926;BME280;55732;52.248;-0.844;2022-07-23T01:29:14;100994.08;;;17.41;67.89
62926;BME280;55732;52.248;-0.844;2022-07-23T01:31:40;100993.44;;;17.37;67.93
62926;BME280;55732;52.248;-0.844;2022-07-23T01:34:06;100992.81;;;17.34;67.96
62926;BME280;55732;52.248;-0.844;2022-07-23T01:36:33;100993.07;;;17.30;68.14
62926;BME280;55732;52.248;-0.844;2022-07-23T01:38:59;100994.90;;;17.28;68.27
62926;BME280;55732;52.248;-0.844;2022-07-23T01:41:24;100992.64;;;17.25;68.32
62926;BME280;55732;52.248;-0.844;2022-07-23T01:43:50;100995.01;;;17.23;68.40
62926;BME280;55732;52.248;-0.844;2022-07-23T01:46:15;100997.02;;;17.21;68.67
62926;BME280;55732;52.248;-0.844;2022-07-23T01:48:41;100994.23;;;17.19;68.69
62926;BME280;55732;52.248;-0.844;2022-07-23T01:51:07;100994.46;;;17.16;69.05
62926;BME280;55732;52.248;-0.844;2022-07-23T01:53:33;100990.38;;;17.15;69.12
62926;BME280;55732;52.248;-0.844;2022-07-23T01:55:59;100990.23;;;17.13;69.13
62926;BME280;55732;52.248;-0.844;2022-07-23T01:58:25;100988.70;;;17.11;69.21
62926;BME280;55732;52.248;-0.844;2022-07-23T02:00:51;100986.58;;;17.10;69.34
62926;BME280;55732;52.248;-0.844;2022-07-23T02:03:17;100982.15;;;17.10;69.36
62926;BME280;55732;52.248;-0.844;2022-07-23T02:05:42;100985.94;;;17.07;69.23
62926;BME280;55732;52.248;-0.844;2022-07-23T02:08:07;100986.97;;;17.00;69.58
62926;BME280;55732;52.248;-0.844;2022-07-23T02:10:33;100987.66;;;16.93;69.76
62926;BME280;55732;52.248;-0.844;2022-07-23T02:12:58;100989.38;;;16.87;69.92
62926;BME280;55732;52.248;-0.844;2022-07-23T02:15:24;100985.92;;;16.82;69.89
62926;BME280;55732;52.248;-0.844;2022-07-23T02:17:49;100978.89;;;16.78;70.07
62926;BME280;55732;52.248;-0.844;2022-07-23T02:20:14;100980.91;;;16.75;70.25
62926;BME280;55732;52.248;-0.844;2022-07-23T02:22:40;100984.14;;;16.74;70.69
62926;BME280;55732;52.248;-0.844;2022-07-23T02:25:07;100984.41;;;16.77;70.75
62926;BME280;55732;52.248;-0.844;2022-07-23T02:27:33;100980.99;;;16.80;70.72
62926;BME280;55732;52.248;-0.844;2022-07-23T02:29:59;100987.86;;;16.83;70.74
62926;BME280;55732;52.248;-0.844;2022-07-23T02:32:25;100987.83;;;16.85;70.67
62926;BME280;55732;52.248;-0.844;2022-07-23T02:34:50;100989.97;;;16.84;70.73
62926;BME280;55732;52.248;-0.844;2022-07-23T02:37:16;100984.83;;;16.84;70.83
62926;BME280;55732;52.248;-0.844;2022-07-23T02:39:42;100986.51;;;16.79;70.80
62926;BME280;55732;52.248;-0.844;2022-07-23T02:42:07;100986.59;;;16.76;70.93
62926;BME280;55732;52.248;-0.844;2022-07-23T02:44:33;100986.13;;;16.72;71.00
62926;BME280;55732;52.248;-0.844;2022-07-23T02:46:58;100983.35;;;16.68;71.09
62926;BME280;55732;52.248;-0.844;2022-07-23T02:49:24;100984.64;;;16.66;71.26
62926;BME280;55732;52.248;-0.844;2022-07-23T02:51:49;100984.88;;;16.64;71.28
62926;BME280;55732;52.248;-0.844;2022-07-23T02:54:15;100983.83;;;16.63;71.54
62926;BME280;55732;52.248;-0.844;2022-07-23T02:56:41;100983.11;;;16.61;71.43
62926;BME280;55732;52.248;-0.844;2022-07-23T02:59:07;100987.23;;;16.60;71.60
62926;BME280;55732;52.248;-0.844;2022-07-23T03:01:32;100990.45;;;16.58;71.49
62926;BME280;55732;52.248;-0.844;2022-07-23T03:03:57;100996.02;;;16.54;71.71
62926;BME280;55732;52.248;-0.844;2022-07-23T03:06:23;100993.78;;;16.51;71.68
62926;BME280;55732;52.248;-0.844;2022-07-23T03:08:48;100993.68;;;16.47;71.88
62926;BME280;55732;52.248;-0.844;2022-07-23T03:11:14;100989.69;;;16.42;72.10
62926;BME280;55732;52.248;-0.844;2022-07-23T03:13:40;100986.50;;;16.41;72.04
62926;BME280;55732;52.248;-0.844;2022-07-23T03:16:06;100986.20;;;16.40;72.34
62926;BME280;55732;52.248;-0.844;2022-07-23T03:18:33;100986.23;;;16.38;72.24
62926;BME280;55732;52.248;-0.844;2022-07-23T03:20:58;100975.45;;;16.34;72.37
62926;BME280;55732;52.248;-0.844;2022-07-23T03:23:24;100983.35;;;16.40;72.47
62926;BME280;55732;52.248;-0.844;2022-07-23T03:25:49;100988.33;;;16.40;72.66
62926;BME280;55732;52.248;-0.844;2022-07-23T03:28:16;100988.70;;;16.39;72.65
62926;BME280;55732;52.248;-0.844;2022-07-23T03:30:42;100987.29;;;16.39;72.60
62926;BME280;55732;52.248;-0.844;2022-07-23T03:33:08;100987.48;;;16.37;72.69
62926;BME280;55732;52.248;-0.844;2022-07-23T03:35:34;100986.81;;;16.35;72.78
62926;BME280;55732;52.248;-0.844;2022-07-23T03:37:59;100989.69;;;16.33;72.77
62926;BME280;55732;52.248;-0.844;2022-07-23T03:40:25;100990.27;;;16.30;72.80
62926;BME280;55732;52.248;-0.844;2022-07-23T03:42:50;100994.79;;;16.27;73.00
62926;BME280;55732;52.248;-0.844;2022-07-23T03:45:16;100997.50;;;16.24;73.06
62926;BME280;55732;52.248;-0.844;2022-07-23T03:47:41;101000.20;;;16.22;73.08
62926;BME280;55732;52.248;-0.844;2022-07-23T03:50:08;101001.30;;;16.19;73.17
62926;BME280;55732;52.248;-0.844;2022-07-23T03:52:34;101004.20;;;16.17;73.50
62926;BME280;55732;52.248;-0.844;2022-07-23T03:54:59;101004.17;;;16.17;73.46
62926;BME280;55732;52.248;-0.844;2022-07-23T03:57:25;101001.15;;;16.17;73.52
62926;BME280;55732;52.248;-0.844;2022-07-23T03:59:50;100990.88;;;16.16;73.50
62926;BME280;55732;52.248;-0.844;2022-07-23T04:02:16;100989.64;;;16.16;73.67
62926;BME280;55732;52.248;-0.844;2022-07-23T04:04:41;100987.66;;;16.17;73.73
62926;BME280;55732;52.248;-0.844;2022-07-23T04:07:07;100988.70;;;16.18;73.86
62926;BME280;55732;52.248;-0.844;2022-07-23T04:09:33;100984.95;;;16.19;73.98
62926;BME280;55732;52.248;-0.844;2022-07-23T04:11:59;100985.98;;;16.22;73.91
62926;BME280;55732;52.248;-0.844;2022-07-23T04:14:24;100990.55;;;16.26;73.88
62926;BME280;55732;52.248;-0.844;2022-07-23T04:16:50;100990.28;;;16.29;73.96
62926;BME280;55732;52.248;-0.844;2022-07-23T04:19:15;100986.51;;;16.32;73.98
62926;BME280;55732;52.248;-0.844;2022-07-23T04:21:41;100981.51;;;16.33;74.01
62926;BME280;55732;52.248;-0.844;2022-07-23T04:24:06;100979.71;;;16.34;73.92
62926;BME280;55732;52.248;-0.844;2022-07-23T04:26:32;100973.73;;;16.31;73.92
62926;BME280;55732;52.248;-0.844;2022-07-23T04:28:57;100986.96;;;16.36;73.92
62926;BME280;55732;52.248;-0.844;2022-07-23T04:31:22;100985.85;;;16.39;73.94
62926;BME280;55732;52.248;-0.844;2022-07-23T04:33:48;100982.08;;;16.40;73.96
62926;BME280;55732;52.248;-0.844;2022-07-23T04:36:13;100984.17;;;16.42;73.91
62926;BME280;55732;52.248;-0.844;2022-07-23T04:38:39;100982.90;;;16.44;73.93
62926;BME280;55732;52.248;-0.844;2022-07-23T04:41:04;100988.19;;;16.47;74.01
62926;BME280;55732;52.248;-0.844;2022-07-23T04:43:30;100985.84;;;16.49;73.96
62926;BME280;55732;52.248;-0.844;2022-07-23T04:45:55;100989.34;;;16.52;73.96
62926;BME280;55732;52.248;-0.844;2022-07-23T04:48:21;100993.02;;;16.53;73.82
62926;BME280;55732;52.248;-0.844;2022-07-23T04:50:46;100992.45;;;16.55;73.80
62926;BME280;55732;52.248;-0.844;2022-07-23T04:53:12;100992.45;;;16.56;73.89
62926;BME280;55732;52.248;-0.844;2022-07-23T04:55:37;100996.54;;;16.56;73.91
62926;BME280;55732;52.248;-0.844;2022-07-23T04:58:03;100994.73;;;16.57;74.07
62926;BME280;55732;52.248;-0.844;2022-07-23T05:00:28;100994.16;;;16.60;74.04
62926;BME280;55732;52.248;-0.844;2022-07-23T05:02:54;100998.05;;;16.62;73.96
62926;BME280;55732;52.248;-0.844;2022-07-23T05:05:19;100992.50;;;16.64;73.98
62926;BME280;55732;52.248;-0.844;2022-07-23T05:07:44;100989.45;;;16.65;73.90
62926;BME280;55732;52.248;-0.844;2022-07-23T05:10:10;100994.36;;;16.70;73.86
62926;BME280;55732;52.248;-0.844;2022-07-23T05:12:35;100988.48;;;16.70;73.78
62926;BME280;55732;52.248;-0.844;2022-07-23T05:15:01;100988.09;;;16.72;73.73
62926;BME280;55732;52.248;-0.844;2022-07-23T05:17:26;100990.53;;;16.75;73.78
62926;BME280;55732;52.248;-0.844;2022-07-23T05:19:52;100990.19;;;16.75;73.75
62926;BME280;55732;52.248;-0.844;2022-07-23T05:22:17;100983.77;;;16.75;73.79
62926;BME280;55732;52.248;-0.844;2022-07-23T05:24:43;100977.09;;;16.79;73.75
62926;BME280;55732;52.248;-0.844;2022-07-23T05:27:08;100973.61;;;16.85;73.67
62926;BME280;55732;52.248;-0.844;2022-07-23T05:29:34;100974.48;;;16.93;73.72
62926;BME280;55732;52.248;-0.844;2022-07-23T05:31:59;100980.03;;;17.00;73.73
62926;BME280;55732;52.248;-0.844;2022-07-23T05:34:24;100986.35;;;17.04;73.87
62926;BME280;55732;52.248;-0.844;2022-07-23T05:36:50;100987.73;;;17.06;73.91
62926;BME280;55732;52.248;-0.844;2022-07-23T05:39:15;100991.96;;;17.08;73.96
62926;BME280;55732;52.248;-0.844;2022-07-23T05:41:41;100994.93;;;17.11;74.02
62926;BME280;55732;52.248;-0.844;2022-07-23T05:44:06;100991.97;;;17.08;74.15
62926;BME280;55732;52.248;-0.844;2022-07-23T05:46:31;100994.30;;;17.07;74.17
62926;BME280;55732;52.248;-0.844;2022-07-23T05:48:57;100991.09;;;17.08;74.45
62926;BME280;55732;52.248;-0.844;2022-07-23T05:51:24;100995.60;;;17.12;74.54
62926;BME280;55732;52.248;-0.844;2022-07-23T05:53:50;100997.65;;;17.17;74.65
62926;BME280;55732;52.248;-0.844;2022-07-23T05:56:16;101001.69;;;17.19;74.85
62926;BME280;55732;52.248;-0.844;2022-07-23T05:58:42;101002.48;;;17.23;74.86
62926;BME280;55732;52.248;-0.844;2022-07-23T06:01:08;101000.83;;;17.25;74.72
62926;BME280;55732;52.248;-0.844;2022-07-23T06:03:34;101005.97;;;17.26;74.76
62926;BME280;55732;52.248;-0.844;2022-07-23T06:05:59;101003.06;;;17.29;74.85
62926;BME280;55732;52.248;-0.844;2022-07-23T06:08:25;101009.05;;;17.32;74.75
62926;BME280;55732;52.248;-0.844;2022-07-23T06:10:50;101012.20;;;17.35;74.81
62926;BME280;55732;52.248;-0.844;2022-07-23T06:13:17;101017.32;;;17.36;75.02
62926;BME280;55732;52.248;-0.844;2022-07-23T06:15:44;101019.27;;;17.36;74.91
62926;BME280;55732;52.248;-0.844;2022-07-23T06:18:09;101020.63;;;17.32;74.89
62926;BME280;55732;52.248;-0.844;2022-07-23T06:20:35;101015.77;;;17.26;75.12
62926;BME280;55732;52.248;-0.844;2022-07-23T06:23:00;101022.07;;;17.22;75.45
62926;BME280;55732;52.248;-0.844;2022-07-23T06:25:26;101022.97;;;17.22;75.49
62926;BME280;55732;52.248;-0.844;2022-07-23T06:27:51;101021.89;;;17.23;75.64
62926;BME280;55732;52.248;-0.844;2022-07-23T06:30:17;101022.20;;;17.24;75.59
62926;BME280;55732;52.248;-0.844;2022-07-23T06:32:45;101020.40;;;17.25;75.68
62926;BME280;55732;52.248;-0.844;2022-07-23T06:35:10;101022.88;;;17.26;75.66
62926;BME280;55732;52.248;-0.844;2022-07-23T06:37:35;101021.66;;;17.24;75.74
62926;BME280;55732;52.248;-0.844;2022-07-23T06:40:02;101021.82;;;17.25;75.92
62926;BME280;55732;52.248;-0.844;2022-07-23T06:42:28;101025.11;;;17.30;75.88
62926;BME280;55732;52.248;-0.844;2022-07-23T06:44:53;101027.03;;;17.32;75.97
62926;BME280;55732;52.248;-0.844;2022-07-23T06:47:18;101020.24;;;17.33;75.93
62926;BME280;55732;52.248;-0.844;2022-07-23T06:49:44;101017.17;;;17.35;76.09
62926;BME280;55732;52.248;-0.844;2022-07-23T06:52:10;101023.98;;;17.41;76.07
62926;BME280;55732;52.248;-0.844;2022-07-23T06:54:35;101027.65;;;17.44;76.03
62926;BME280;55732;52.248;-0.844;2022-07-23T06:57:01;101028.80;;;17.48;75.82
62926;BME280;55732;52.248;-0.844;2022-07-23T06:59:26;101025.16;;;17.52;75.83
62926;BME280;55732;52.248;-0.844;2022-07-23T07:01:52;101019.58;;;17.55;75.70
62926;BME280;55732;52.248;-0.844;2022-07-23T07:04:17;101014.81;;;17.61;75.77
62926;BME280;55732;52.248;-0.844;2022-07-23T07:06:43;101015.08;;;17.66;75.87
62926;BME280;55732;52.248;-0.844;2022-07-23T07:09:08;101012.36;;;17.68;75.76
62926;BME280;55732;52.248;-0.844;2022-07-23T07:11:33;101011.92;;;17.70;75.64
62926;BME280;55732;52.248;-0.844;2022-07-23T07:13:59;101015.40;;;17.74;75.61
62926;BME280;55732;52.248;-0.844;2022-07-23T07:16:24;101019.10;;;17.76;75.52
62926;BME280;55732;52.248;-0.844;2022-07-23T07:18:50;101015.48;;;17.79;75.57
62926;BME280;55732;52.248;-0.844;2022-07-23T07:21:15;101016.10;;;17.82;75.36
62926;BME280;55732;52.248;-0.844;2022-07-23T07:23:40;101009.66;;;17.83;75.45
62926;BME280;55732;52.248;-0.844;2022-07-23T07:26:06;101009.70;;;17.89;75.27
62926;BME280;55732;52.248;-0.844;2022-07-23T07:28:31;101016.61;;;17.98;75.05
62926;BME280;55732;52.248;-0.844;2022-07-23T07:30:57;101018.90;;;18.14;74.81
62926;BME280;55732;52.248;-0.844;2022-07-23T07:33:22;101019.50;;;18.31;74.40
62926;BME280;55732;52.248;-0.844;2022-07-23T07:35:48;101018.98;;;18.51;73.68
62926;BME280;55732;52.248;-0.844;2022-07-23T07:38:13;101016.70;;;18.76;73.06
62926;BME280;55732;52.248;-0.844;2022-07-23T07:40:38;101012.98;;;19.07;72.26
62926;BME280;55732;52.248;-0.844;2022-07-23T07:43:04;101009.76;;;19.49;71.26
62926;BME280;55732;52.248;-0.844;2022-07-23T07:45:30;101007.52;;;19.85;70.31
62926;BME280;55732;52.248;-0.844;2022-07-23T07:47:55;101004.33;;;19.95;69.71
62926;BME280;55732;52.248;-0.844;2022-07-23T07:50:21;101012.85;;;19.97;69.48
62926;BME280;55732;52.248;-0.844;2022-07-23T07:52:47;101009.16;;;19.95;69.17
62926;BME280;55732;52.248;-0.844;2022-07-23T07:55:13;101004.38;;;19.94;68.75
62926;BME280;55732;52.248;-0.844;2022-07-23T07:57:39;100999.19;;;20.15;68.36
62926;BME280;55732;52.248;-0.844;2022-07-23T08:00:07;100990.95;;;20.47;67.28
62926;BME280;55732;52.248;-0.844;2022-07-23T08:02:50;100991.76;;;20.69;66.86
62926;BME280;55732;52.248;-0.844;2022-07-23T08:05:27;100991.91;;;20.94;65.84
62926;BME280;55732;52.248;-0.844;2022-07-23T08:07:53;100997.37;;;21.30;64.79
62926;BME280;55732;52.248;-0.844;2022-07-23T08:10:19;101003.73;;;21.90;63.23
62926;BME280;55732;52.248;-0.844;2022-07-23T08:12:50;100999.49;;;22.31;62.25
62926;BME280;55732;52.248;-0.844;2022-07-23T08:15:19;101004.42;;;22.74;60.99
62926;BME280;55732;52.248;-0.844;2022-07-23T08:17:46;101003.56;;;22.98;60.32
62926;BME280;55732;52.248;-0.844;2022-07-23T08:20:13;101010.15;;;23.45;59.20
62926;BME280;55732;52.248;-0.844;2022-07-23T08:22:46;101017.27;;;23.65;58.78
62926;BME280;55732;52.248;-0.844;2022-07-23T08:25:13;101015.20;;;23.67;58.03
62926;BME280;55732;52.248;-0.844;2022-07-23T08:27:39;101022.33;;;23.61;57.77
62926;BME280;55732;52.248;-0.844;2022-07-23T08:30:05;101023.23;;;23.50;57.57
62926;BME280;55732;52.248;-0.844;2022-07-23T08:32:30;101022.55;;;23.33;57.59
62926;BME280;55732;52.248;-0.844;2022-07-23T08:34:56;101017.79;;;23.35;57.17
62926;BME280;55732;52.248;-0.844;2022-07-23T08:37:21;101009.98;;;23.41;56.66
62926;BME280;55732;52.248;-0.844;2022-07-23T08:39:46;101012.73;;;23.47;56.21
62926;BME280;55732;52.248;-0.844;2022-07-23T08:42:13;101011.79;;;23.60;56.41
62926;BME280;55732;52.248;-0.844;2022-07-23T08:44:42;101002.19;;;23.90;55.52
62926;BME280;55732;52.248;-0.844;2022-07-23T08:47:10;100999.64;;;24.02;55.02
62926;BME280;55732;52.248;-0.844;2022-07-23T08:49:36;100988.70;;;24.26;54.38
62926;BME280;55732;52.248;-0.844;2022-07-23T08:52:03;100990.87;;;24.87;53.03
62926;BME280;55732;52.248;-0.844;2022-07-23T08:54:29;100987.28;;;25.30;52.12
62926;BME280;55732;52.248;-0.844;2022-07-23T08:56:55;100991.48;;;25.09;51.95
62926;BME280;55732;52.248;-0.844;2022-07-23T08:59:20;100994.14;;;24.80;52.66
62926;BME280;55732;52.248;-0.844;2022-07-23T09:01:46;100996.83;;;24.60;52.47
62926;BME280;55732;52.248;-0.844;2022-07-23T09:04:11;100996.23;;;24.71;52.09
62926;BME280;55732;52.248;-0.844;2022-07-23T09:06:38;100995.77;;;26.02;50.57
62926;BME280;55732;52.248;-0.844;2022-07-23T09:09:17;100993.38;;;26.95;48.56
62926;BME280;55732;52.248;-0.844;2022-07-23T09:11:46;100994.38;;;26.64;48.44
62926;BME280;55732;52.248;-0.844;2022-07-23T09:14:13;100994.58;;;26.34;48.27
62926;BME280;55732;52.248;-0.844;2022-07-23T09:16:38;100993.75;;;26.74;47.21
62926;BME280;55732;52.248;-0.844;2022-07-23T09:19:06;100993.29;;;27.70;45.29
62926;BME280;55732;52.248;-0.844;2022-07-23T09:21:37;100994.52;;;28.47;43.98
62926;BME280;55732;52.248;-0.844;2022-07-23T09:24:05;100996.71;;;29.77;41.77
62926;BME280;55732;52.248;-0.844;2022-07-23T09:31:46;100995.11;;;34.08;34.21
62926;BME280;55732;52.248;-0.844;2022-07-23T09:36:48;101000.02;;;35.12;32.24
62926;BME280;55732;52.248;-0.844;2022-07-23T09:39:16;101003.42;;;35.72;30.93
62926;BME280;55732;52.248;-0.844;2022-07-23T09:41:47;100995.42;;;36.04;30.15
62926;BME280;55732;52.248;-0.844;2022-07-23T09:44:19;100988.30;;;36.25;29.76
62926;BME280;55732;52.248;-0.844;2022-07-23T09:46:46;100986.77;;;36.94;29.02
62926;BME280;55732;52.248;-0.844;2022-07-23T09:49:17;100989.96;;;37.95;27.63
62926;BME280;55732;52.248;-0.844;2022-07-23T09:54:22;100987.94;;;39.32;25.81
62926;BME280;55732;52.248;-0.844;2022-07-23T09:56:51;100987.21;;;39.87;24.89
62926;BME280;55732;52.248;-0.844;2022-07-23T09:59:16;100986.73;;;39.99;24.70
62926;BME280;55732;52.248;-0.844;2022-07-23T10:01:45;100978.67;;;39.84;23.82
62926;BME280;55732;52.248;-0.844;2022-07-23T10:04:11;100976.83;;;40.03;23.85
62926;BME280;55732;52.248;-0.844;2022-07-23T10:06:39;100980.30;;;40.25;23.46
62926;BME280;55732;52.248;-0.844;2022-07-23T10:09:06;100981.56;;;39.99;23.59
62926;BME280;55732;52.248;-0.844;2022-07-23T10:11:33;100977.10;;;40.13;23.05
62926;BME280;55732;52.248;-0.844;2022-07-23T10:13:59;100978.75;;;40.74;22.46
62926;BME280;55732;52.248;-0.844;2022-07-23T10:16:26;100985.02;;;41.21;21.75
62926;BME280;55732;52.248;-0.844;2022-07-23T10:18:52;100980.28;;;41.19;21.47
62926;BME280;55732;52.248;-0.844;2022-07-23T10:22:00;100978.64;;;40.04;22.52
62926;BME280;55732;52.248;-0.844;2022-07-23T10:30:04;100969.83;;;36.22;24.79
62926;BME280;55732;52.248;-0.844;2022-07-23T10:35:42;100966.38;;;34.95;25.70
62926;BME280;55732;52.248;-0.844;2022-07-23T10:47:01;100959.77;;;33.30;28.00
62926;BME280;55732;52.248;-0.844;2022-07-23T10:58:00;100950.48;;;32.10;29.40
62926;BME280;55732;52.248;-0.844;2022-07-23T11:00:27;100949.98;;;31.88;29.71
62926;BME280;55732;52.248;-0.844;2022-07-23T11:02:59;100950.67;;;31.73;29.52
62926;BME280;55732;52.248;-0.844;2022-07-23T11:10:45;100947.13;;;30.70;29.36
62926;BME280;55732;52.248;-0.844;2022-07-23T11:32:24;100937.56;;;30.18;30.80
62926;BME280;55732;52.248;-0.844;2022-07-23T11:34:52;100935.79;;;30.01;30.62
62926;BME280;55732;52.248;-0.844;2022-07-23T11:37:39;100934.61;;;29.86;30.76
62926;BME280;55732;52.248;-0.844;2022-07-23T11:40:11;100939.75;;;29.83;30.88
62926;BME280;55732;52.248;-0.844;2022-07-23T11:45:22;100938.13;;;29.75;30.99
62926;BME280;55732;52.248;-0.844;2022-07-23T11:47:48;100936.98;;;29.64;31.47
62926;BME280;55732;52.248;-0.844;2022-07-23T11:50:14;100941.02;;;29.68;31.37
62926;BME280;55732;52.248;-0.844;2022-07-23T11:52:40;100932.14;;;29.78;31.05
62926;BME280;55732;52.248;-0.844;2022-07-23T11:55:07;100929.27;;;29.79;31.40
62926;BME280;55732;52.248;-0.844;2022-07-23T11:57:35;100926.68;;;29.94;31.10
62926;BME280;55732;52.248;-0.844;2022-07-23T12:03:01;100937.52;;;29.66;31.57
62926;BME280;55732;52.248;-0.844;2022-07-23T12:05:30;100936.64;;;29.44;31.87
62926;BME280;55732;52.248;-0.844;2022-07-23T12:07:56;100928.23;;;29.30;32.15
62926;BME280;55732;52.248;-0.844;2022-07-23T12:10:32;100928.45;;;29.18;32.22
62926;BME280;55732;52.248;-0.844;2022-07-23T12:13:01;100933.55;;;28.92;32.35
62926;BME280;55732;52.248;-0.844;2022-07-23T12:15:34;100933.36;;;28.69;32.94
62926;BME280;55732;52.248;-0.844;2022-07-23T12:18:03;100928.46;;;28.52;33.21
62926;BME280;55732;52.248;-0.844;2022-07-23T12:20:31;100920.23;;;28.37;33.53
62926;BME280;55732;52.248;-0.844;2022-07-23T12:23:03;100917.89;;;28.32;34.00
62926;BME280;55732;52.248;-0.844;2022-07-23T12:25:38;100919.06;;;28.36;34.08
62926;BME280;55732;52.248;-0.844;2022-07-23T12:28:11;100915.30;;;28.35;34.17
62926;BME280;55732;52.248;-0.844;2022-07-23T12:33:06;100916.12;;;28.13;34.81
62926;BME280;55732;52.248;-0.844;2022-07-23T12:35:42;100914.05;;;27.88;35.23
62926;BME280;55732;52.248;-0.844;2022-07-23T12:38:13;100912.67;;;27.57;35.88
62926;BME280;55732;52.248;-0.844;2022-07-23T12:45:53;100910.11;;;27.16;37.76
62926;BME280;55732;52.248;-0.844;2022-07-23T12:48:29;100904.64;;;27.12;38.03
62926;BME280;55732;52.248;-0.844;2022-07-23T12:50:58;100901.65;;;27.16;38.25
62926;BME280;55732;52.248;-0.844;2022-07-23T12:59:07;100894.47;;;27.67;38.48
62926;BME280;55732;52.248;-0.844;2022-07-23T13:01:41;100891.90;;;27.57;38.33
62926;BME280;55732;52.248;-0.844;2022-07-23T13:04:18;100891.20;;;27.32;38.85
62926;BME280;55732;52.248;-0.844;2022-07-23T13:09:15;100889.52;;;26.94;39.66
62926;BME280;55732;52.248;-0.844;2022-07-23T13:11:42;100887.50;;;26.72;40.12
62926;BME280;55732;52.248;-0.844;2022-07-23T13:14:07;100886.67;;;26.56;40.41
62926;BME280;55732;52.248;-0.844;2022-07-23T13:16:33;100883.63;;;26.44;40.73
62926;BME280;55732;52.248;-0.844;2022-07-23T13:18:59;100887.08;;;26.41;41.02
62926;BME280;55732;52.248;-0.844;2022-07-23T13:21:26;100880.83;;;26.40;41.19
62926;BME280;55732;52.248;-0.844;2022-07-23T13:23:53;100881.70;;;26.38;41.43
62926;BME280;55732;52.248;-0.844;2022-07-23T13:26:18;100876.70;;;26.31;41.75
62926;BME280;55732;52.248;-0.844;2022-07-23T13:28:44;100881.17;;;26.20;41.96
62926;BME280;55732;52.248;-0.844;2022-07-23T13:31:10;100883.94;;;26.13;42.02
62926;BME280;55732;52.248;-0.844;2022-07-23T13:33:36;100881.54;;;26.13;42.22
62926;BME280;55732;52.248;-0.844;2022-07-23T13:36:02;100880.71;;;26.18;42.47
62926;BME280;55732;52.248;-0.844;2022-07-23T13:38:28;100879.75;;;26.22;42.36
62926;BME280;55732;52.248;-0.844;2022-07-23T13:40:55;100879.77;;;26.19;42.68
62926;BME280;55732;52.248;-0.844;2022-07-23T13:43:23;100880.77;;;26.14;42.66
62926;BME280;55732;52.248;-0.844;2022-07-23T13:45:50;100875.42;;;25.99;43.04
62926;BME280;55732;52.248;-0.844;2022-07-23T13:48:16;100877.89;;;25.85;43.12
62926;BME280;55732;52.248;-0.844;2022-07-23T13:50:44;100881.73;;;25.72;43.51
62926;BME280;55732;52.248;-0.844;2022-07-23T13:53:12;100877.45;;;25.65;43.88
62926;BME280;55732;52.248;-0.844;2022-07-23T13:55:38;100869.95;;;25.61;43.90
62926;BME280;55732;52.248;-0.844;2022-07-23T13:58:05;100874.02;;;25.68;44.03
62926;BME280;55732;52.248;-0.844;2022-07-23T14:00:31;100872.66;;;25.88;43.88